Time;durP1;ratioP1;P1;durP2;ratioP2;P2;SDS_P1;SDS_P2;PMS_P1;PMS_P2;Temp;Humidity;BMP_temperature;BMP_pressure;BME280_temperature;BME280_humidity;BME280_pressure;Samples;Min_cycle;Max_cycle;Signal;HPM_P1;HPM_P2
2021/12/29 00:00:29;;;;;;;84.87;29.50;;;;;;;6.36;93.50;94162.31;5052441;28;20186;-84
2021/12/29 00:02:56;;;;;;;66.40;24.93;;;;;;;6.74;94.26;94220.00;5064374;28;20233;-83
2021/12/29 00:05:23;;;;;;;66.13;26.17;;;;;;;6.74;94.34;94224.44;5032631;28;20668;-84
2021/12/29 00:07:48;;;;;;;58.23;24.23;;;;;;;6.53;94.98;94190.66;5055040;28;20168;-84
2021/12/29 00:10:15;;;;;;;75.10;29.67;;;;;;;6.61;94.96;94198.28;5068081;28;20174;-84
2021/12/29 00:12:45;;;;;;;103.33;29.97;;;;;;;6.83;94.79;94231.06;5072395;28;20178;-84
2021/12/29 00:15:13;;;;;;;114.77;27.47;;;;;;;6.85;94.24;94218.56;5074000;28;20155;-84
2021/12/29 00:17:40;;;;;;;166.70;26.40;;;;;;;6.58;94.53;94181.19;5072219;28;20174;-84
2021/12/29 00:20:07;;;;;;;106.83;23.13;;;;;;;6.55;94.72;94201.72;5073410;28;20161;-84
2021/12/29 00:22:33;;;;;;;167.83;27.13;;;;;;;6.51;95.80;94190.03;5072099;28;20175;-83
2021/12/29 00:24:58;;;;;;;105.57;24.43;;;;;;;6.21;95.56;94137.41;5073559;28;20163;-84
2021/12/29 00:27:23;;;;;;;102.13;24.60;;;;;;;6.25;95.68;94156.88;5073251;28;20167;-84
2021/12/29 00:29:49;;;;;;;99.10;26.47;;;;;;;6.57;96.02;94208.34;5073202;28;20193;-84
2021/12/29 00:32:14;;;;;;;56.27;24.13;;;;;;;6.53;96.03;94201.09;5073397;28;20225;-84
2021/12/29 00:34:40;;;;;;;56.87;22.47;;;;;;;6.48;95.53;94190.47;5072974;28;20182;-84
2021/12/29 00:37:05;;;;;;;72.10;24.40;;;;;;;6.65;95.15;94212.56;5071750;28;20672;-84
2021/12/29 00:39:30;;;;;;;150.00;28.57;;;;;;;6.33;94.49;94161.91;5073003;28;20174;-84
2021/12/29 00:41:56;;;;;;;89.87;29.00;;;;;;;6.43;95.07;94198.88;5073294;28;20158;-84
2021/12/29 00:44:21;;;;;;;128.37;33.47;;;;;;;6.16;94.62;94150.25;5072891;28;20208;-84
2021/12/29 00:46:52;;;;;;;106.33;30.97;;;;;;;6.51;94.46;94210.94;5072833;28;20696;-84
2021/12/29 00:49:18;;;;;;;87.23;30.30;;;;;;;6.54;94.15;94210.56;5071570;28;20178;-84
2021/12/29 00:51:43;;;;;;;139.60;31.17;;;;;;;6.35;94.18;94186.84;5071560;28;21125;-84
2021/12/29 00:54:08;;;;;;;78.23;31.07;;;;;;;6.34;93.90;94193.06;5071470;28;20171;-84
2021/12/29 00:56:34;;;;;;;83.20;32.57;;;;;;;6.33;94.07;94193.25;5071474;28;20635;-84
2021/12/29 00:58:59;;;;;;;97.87;31.90;;;;;;;6.38;94.15;94189.06;5071395;28;20166;-83
2021/12/29 01:01:25;;;;;;;104.33;35.60;;;;;;;6.04;93.59;94135.19;5072225;28;20723;-84
2021/12/29 01:03:50;;;;;;;89.00;34.70;;;;;;;6.29;93.60;94171.97;5072160;28;20228;-84
2021/12/29 01:06:16;;;;;;;85.33;33.70;;;;;;;6.15;93.08;94154.66;5071324;28;20672;-83
2021/12/29 01:08:41;;;;;;;73.43;27.57;;;;;;;6.15;93.94;94165.09;5071282;28;20257;-84
2021/12/29 01:11:07;;;;;;;63.00;25.40;;;;;;;6.20;94.05;94183.63;5060268;28;20687;-84
2021/12/29 01:13:34;;;;;;;45.10;22.57;;;;;;;6.14;93.69;94162.72;5058272;28;20674;-84
2021/12/29 01:18:30;;;;;;;46.80;21.97;;;;;;;6.15;93.47;94167.72;5063648;28;20182;-84
2021/12/29 01:20:56;;;;;;;48.00;21.03;;;;;;;6.10;93.31;94167.53;5072297;28;20174;-84
2021/12/29 01:23:22;;;;;;;58.70;23.20;;;;;;;6.19;93.60;94187.22;5071084;28;20202;-84
2021/12/29 01:25:47;;;;;;;44.10;20.20;;;;;;;5.38;94.04;94055.94;5072288;28;20249;-84
2021/12/29 01:28:13;;;;;;;51.30;22.60;;;;;;;6.24;93.82;94179.59;5072503;28;20239;-83
2021/12/29 01:30:38;;;;;;;43.60;22.17;;;;;;;6.05;93.75;94142.00;5070904;28;20673;-83
2021/12/29 01:33:06;;;;;;;56.73;22.77;;;;;;;6.30;93.47;94178.00;5070958;28;20173;-83
2021/12/29 01:35:33;;;;;;;46.23;21.10;;;;;;;6.16;92.88;94145.00;5072149;28;20204;-83
2021/12/29 01:37:59;;;;;;;46.73;21.67;;;;;;;6.18;93.05;94143.00;5070866;28;20174;-83
2021/12/29 01:40:26;;;;;;;47.47;23.10;;;;;;;6.38;92.95;94169.94;5070877;28;20602;-83
2021/12/29 01:42:51;;;;;;;52.37;23.00;;;;;;;6.40;92.72;94168.72;5072018;28;20185;-83
2021/12/29 01:45:17;;;;;;;53.63;25.17;;;;;;;5.20;91.73;93977.47;5072253;28;20174;-84
2021/12/29 01:47:43;;;;;;;70.30;33.33;;;;;;;5.99;92.08;94108.84;5071956;28;20171;-83
2021/12/29 01:50:10;;;;;;;75.50;33.53;;;;;;;5.88;92.37;94087.78;5070668;28;20262;-84
2021/12/29 01:52:39;;;;;;;74.17;32.73;;;;;;;6.31;92.51;94151.63;5072261;28;20210;-84
2021/12/29 01:55:07;;;;;;;79.53;34.23;;;;;;;6.37;92.26;94153.47;5071955;28;20212;-84
2021/12/29 01:57:33;;;;;;;86.47;37.17;;;;;;;6.38;92.00;94151.66;5071864;28;20174;-83
2021/12/29 02:00:07;;;;;;;101.47;42.53;;;;;;;6.36;91.88;94143.22;5070595;28;20981;-83
2021/12/29 02:02:33;;;;;;;128.03;46.73;;;;;;;5.72;91.90;94035.88;5071791;28;20159;-84
2021/12/29 02:04:58;;;;;;;137.13;50.53;;;;;;;6.22;91.76;94113.69;5070542;28;20169;-83
2021/12/29 02:07:24;;;;;;;140.13;48.97;;;;;;;5.97;91.24;94058.59;5071816;28;20166;-84
2021/12/29 02:09:49;;;;;;;137.80;48.67;;;;;;;5.92;91.91;94078.50;5071879;28;20162;-83
2021/12/29 02:12:16;;;;;;;111.80;41.37;;;;;;;6.03;92.78;94098.81;5070419;28;20311;-83
2021/12/29 02:14:43;;;;;;;110.97;43.63;;;;;;;6.04;92.65;94084.75;5073804;28;20194;-84
2021/12/29 02:17:08;;;;;;;96.93;40.70;;;;;;;5.89;92.74;94044.94;5074556;28;20907;-82
2021/12/29 02:19:33;;;;;;;71.63;32.67;;;;;;;6.12;91.92;94096.81;5075669;28;20207;-82
2021/12/29 02:22:12;;;;;;;65.97;31.47;;;;;;;6.07;92.77;94089.56;5076164;28;20245;-82
2021/12/29 02:24:43;;;;;;;49.03;23.77;;;;;;;5.92;93.23;94076.72;5064094;28;20186;-82
2021/12/29 02:27:12;;;;;;;52.17;25.93;;;;;;;5.89;93.29;94055.41;5064966;28;20277;-82
2021/12/29 02:29:40;;;;;;;55.67;26.67;;;;;;;6.18;92.98;94090.75;5066361;28;20177;-82
2021/12/29 02:32:06;;;;;;;63.10;30.13;;;;;;;6.25;92.17;94099.38;5064539;28;20698;-82
2021/12/29 02:34:33;;;;;;;61.57;29.03;;;;;;;6.15;92.20;94080.69;5054097;28;20175;-82
2021/12/29 02:37:01;;;;;;;68.73;30.33;;;;;;;6.18;92.40;94077.69;5055357;28;20678;-82
2021/12/29 02:39:30;;;;;;;64.13;31.30;;;;;;;6.31;92.42;94101.97;5055619;28;20159;-82
2021/12/29 02:41:56;;;;;;;81.20;35.03;;;;;;;6.30;92.22;94076.88;5055286;28;20171;-82
2021/12/29 02:44:27;;;;;;;77.13;35.00;;;;;;;6.39;91.75;94099.19;5055528;28;20175;-82
2021/12/29 02:46:55;;;;;;;91.97;36.43;;;;;;;6.28;91.45;94076.28;5053973;28;20171;-82
2021/12/29 02:49:21;;;;;;;74.50;32.87;;;;;;;6.27;91.34;94072.06;5055141;28;20557;-82
2021/12/29 02:51:47;;;;;;;76.67;30.57;;;;;;;5.96;91.21;94024.88;5053755;28;21000;-82
2021/12/29 02:54:13;;;;;;;70.03;28.90;;;;;;;6.35;91.67;94082.28;5053819;28;20171;-82
2021/12/29 02:56:39;;;;;;;72.37;29.27;;;;;;;6.17;91.90;94052.56;5053740;28;20218;-83
2021/12/29 02:59:05;;;;;;;68.20;27.33;;;;;;;6.13;91.60;94054.00;5055115;28;20163;-82
2021/12/29 03:01:30;;;;;;;58.17;25.63;;;;;;;6.36;92.11;94089.13;5054954;28;20171;-82
2021/12/29 03:03:58;;;;;;;69.60;30.33;;;;;;;6.21;91.55;94056.41;5053408;28;20227;-82
2021/12/29 03:06:24;;;;;;;63.20;25.77;;;;;;;6.16;91.71;94051.75;5053581;28;20186;-82
2021/12/29 03:08:50;;;;;;;59.93;27.43;;;;;;;6.31;92.10;94081.06;5053465;28;20564;-82
2021/12/29 03:11:16;;;;;;;57.43;25.03;;;;;;;6.29;92.00;94077.88;5054973;28;20198;-82
2021/12/29 03:13:42;;;;;;;63.10;26.57;;;;;;;6.40;91.84;94085.09;5054688;28;20167;-82
2021/12/29 03:16:09;;;;;;;60.97;27.67;;;;;;;6.40;91.53;94086.88;5055002;28;20186;-82
2021/12/29 03:18:35;;;;;;;57.50;27.47;;;;;;;6.18;91.80;94059.41;5053384;28;20567;-83
2021/12/29 03:21:01;;;;;;;60.80;29.00;;;;;;;6.37;91.97;94077.66;5054550;28;20167;-82
2021/12/29 03:23:27;;;;;;;51.53;24.43;;;;;;;6.32;91.63;94060.97;5054525;28;20217;-82
2021/12/29 03:25:52;;;;;;;49.73;25.40;;;;;;;6.34;92.24;94065.00;5053819;28;20174;-82
2021/12/29 03:28:23;;;;;;;51.70;27.40;;;;;;;6.19;92.36;94033.06;5053131;28;20175;-82
2021/12/29 03:30:52;;;;;;;60.87;25.93;;;;;;;6.41;92.35;94063.16;5058130;28;20268;-82
2021/12/29 03:33:18;;;;;;;54.67;27.13;;;;;;;6.42;92.49;94064.78;5065239;28;20672;-83
2021/12/29 03:35:47;;;;;;;66.77;29.83;;;;;;;6.42;92.21;94059.56;5064009;28;20182;-82
2021/12/29 03:38:17;;;;;;;57.87;28.20;;;;;;;6.48;92.07;94057.94;5065208;28;20189;-83
2021/12/29 03:40:43;;;;;;;55.00;26.10;;;;;;;6.34;91.83;94033.63;5074048;28;20224;-82
2021/12/29 03:43:10;;;;;;;58.37;27.87;;;;;;;6.53;91.80;94063.34;5074438;28;20265;-83
2021/12/29 03:45:40;;;;;;;56.43;27.43;;;;;;;6.43;91.40;94040.25;5074412;28;20194;-82
2021/12/29 03:48:07;;;;;;;51.47;26.43;;;;;;;6.30;91.21;94014.16;5072801;28;20269;-83
2021/12/29 03:50:32;;;;;;;50.40;23.73;;;;;;;6.48;91.56;94046.69;5073939;28;20564;-82
2021/12/29 03:52:58;;;;;;;48.17;24.40;;;;;;;6.52;91.62;94048.66;5073914;28;20166;-82
2021/12/29 03:55:23;;;;;;;52.13;25.10;;;;;;;6.49;91.23;94043.06;5073926;28;20671;-82
2021/12/29 03:57:49;;;;;;;59.43;27.13;;;;;;;6.04;91.86;93980.25;5073772;28;20170;-82
2021/12/29 04:00:18;;;;;;;50.47;25.70;;;;;;;6.35;91.83;94016.94;5074139;28;20167;-82
2021/12/29 04:02:44;;;;;;;51.43;26.13;;;;;;;6.30;91.23;93995.06;5072452;28;20538;-83
2021/12/29 04:05:12;;;;;;;48.83;25.63;;;;;;;6.34;91.24;94006.69;5074062;28;20632;-82
2021/12/29 04:07:38;;;;;;;45.23;23.50;;;;;;;6.30;91.33;94006.31;5073721;28;20220;-83
2021/12/29 04:10:04;;;;;;;47.60;23.60;;;;;;;6.30;91.72;94011.56;5073626;28;20640;-83
2021/12/29 04:12:30;;;;;;;44.83;24.33;;;;;;;6.32;91.90;94014.75;5073466;28;20182;-82
2021/12/29 04:14:56;;;;;;;50.00;24.17;;;;;;;6.34;91.59;94012.72;5055941;28;20159;-82
2021/12/29 04:17:26;;;;;;;47.33;24.97;;;;;;;6.31;91.53;94020.19;5062878;28;20569;-82
2021/12/29 04:22:36;;;;;;;49.13;24.20;;;;;;;6.38;92.18;94028.81;5055871;28;20182;-79
2021/12/29 04:25:02;;;;;;;60.90;28.47;;;;;;;6.44;91.69;94033.22;5065795;28;20178;-79
2021/12/29 04:27:27;;;;;;;67.67;31.13;;;;;;;6.27;91.66;93996.28;5063485;28;20240;-79
2021/12/29 04:29:53;;;;;;;59.13;30.17;;;;;;;6.38;91.57;94013.94;5066271;28;20182;-79
2021/12/29 04:32:19;;;;;;;72.17;33.10;;;;;;;6.29;91.75;94023.00;5062407;28;20211;-83
2021/12/29 04:34:44;;;;;;;60.43;32.13;;;;;;;6.37;91.54;94019.38;5052906;28;20213;-83
2021/12/29 04:37:10;;;;;;;69.03;33.47;;;;;;;6.11;91.27;93975.81;5050707;28;20171;-83
2021/12/29 04:39:35;;;;;;;97.20;44.63;;;;;;;6.30;91.73;94002.91;5053039;28;20246;-83
2021/12/29 04:42:01;;;;;;;97.73;44.53;;;;;;;6.46;91.62;94030.41;5059607;28;20178;-83
2021/12/29 04:44:26;;;;;;;79.57;38.63;;;;;;;6.40;91.62;94022.34;5059767;28;20210;-83
2021/12/29 04:46:54;;;;;;;96.30;45.53;;;;;;;6.44;91.81;94035.81;5063377;28;20205;-83
2021/12/29 04:49:27;;;;;;;109.27;47.43;;;;;;;6.32;92.01;94027.00;5063728;28;20167;-83
2021/12/29 04:52:03;;;;;;;98.80;44.93;;;;;;;6.21;92.38;94007.56;5071287;28;20226;-83
2021/12/29 04:54:30;;;;;;;98.23;45.50;;;;;;;6.59;92.05;94056.47;5071505;28;20170;-81
2021/12/29 04:56:56;;;;;;;99.33;45.57;;;;;;;6.24;91.85;93998.47;5072688;28;20607;-81
2021/12/29 04:59:25;;;;;;;90.30;44.40;;;;;;;6.42;92.54;94030.78;5072790;28;20178;-82
2021/12/29 05:01:52;;;;;;;87.60;41.03;;;;;;;6.63;92.03;94055.88;5063164;28;20167;-83
2021/12/29 05:04:30;;;;;;;101.33;42.17;;;;;;;6.57;92.29;94037.59;5065685;28;20607;-83
2021/12/29 05:09:40;;;;;;;88.83;42.37;;;;;;;6.56;92.01;94028.16;5060390;28;20173;-83
2021/12/29 05:12:06;;;;;;;74.77;36.30;;;;;;;6.58;91.86;94033.97;5059947;28;20210;-83
2021/12/29 05:14:32;;;;;;;79.87;38.43;;;;;;;6.38;92.40;94008.72;5065260;28;20186;-82
2021/12/29 05:16:57;;;;;;;75.97;36.73;;;;;;;6.38;92.31;94008.72;5056568;28;20190;-83
2021/12/29 05:19:22;;;;;;;83.30;39.80;;;;;;;6.43;91.95;94016.72;5054848;28;20197;-83
2021/12/29 05:21:48;;;;;;;71.47;34.37;;;;;;;6.67;91.63;94049.22;5055112;28;20189;-83
2021/12/29 05:24:13;;;;;;;75.70;36.23;;;;;;;6.69;91.88;94054.25;5063718;28;20170;-83
2021/12/29 05:26:39;;;;;;;61.17;32.97;;;;;;;6.63;91.68;94047.25;5056754;28;20182;-83
2021/12/29 05:29:04;;;;;;;65.43;35.70;;;;;;;6.86;91.48;94067.66;5059691;28;20179;-83
2021/12/29 05:31:30;;;;;;;71.10;37.73;;;;;;;6.44;91.95;94007.88;5050805;28;20310;-84
2021/12/29 05:33:56;;;;;;;68.23;37.80;;;;;;;6.91;91.31;94060.00;5050836;28;20182;-85
2021/12/29 05:36:21;;;;;;;67.93;36.60;;;;;;;6.64;91.74;94027.94;5050896;28;20562;-86
2021/12/29 05:38:47;;;;;;;73.57;39.27;;;;;;;6.84;92.12;94065.25;5052084;28;20175;-84
2021/12/29 05:41:12;;;;;;;58.57;30.90;;;;;;;6.58;92.17;94018.28;5051712;28;20240;-82
2021/12/29 05:43:38;;;;;;;60.50;32.50;;;;;;;6.83;91.74;94051.38;5052242;28;20214;-85
2021/12/29 05:46:03;;;;;;;67.80;35.57;;;;;;;6.79;91.85;94041.53;5051202;28;20203;-82
2021/12/29 05:48:29;;;;;;;65.63;35.33;;;;;;;7.00;92.27;94062.19;5060407;28;20179;-83
2021/12/29 05:50:55;;;;;;;67.97;35.63;;;;;;;7.03;92.12;94064.38;5050581;28;20195;-80
2021/12/29 05:53:20;;;;;;;64.70;34.10;;;;;;;6.99;91.76;94052.72;5051687;28;20621;-84
2021/12/29 05:55:46;;;;;;;63.23;35.00;;;;;;;7.02;91.99;94054.91;5051960;28;20562;-84
2021/12/29 05:58:11;;;;;;;64.93;32.70;;;;;;;7.03;91.74;94048.66;5051885;28;20185;-84
2021/12/29 06:00:40;;;;;;;58.90;32.17;;;;;;;7.18;90.96;94077.97;5051485;28;20170;-84
2021/12/29 06:03:06;;;;;;;58.00;32.70;;;;;;;7.20;91.27;94059.44;5050507;28;20174;-84
2021/12/29 06:05:32;;;;;;;57.63;32.57;;;;;;;7.20;91.33;94073.34;5051465;28;20222;-84
2021/12/29 06:07:57;;;;;;;51.97;28.97;;;;;;;6.77;91.31;94010.34;5051461;28;20224;-84
2021/12/29 06:10:22;;;;;;;43.90;25.93;;;;;;;6.94;91.76;94041.25;5051513;28;20258;-87
2021/12/29 06:12:48;;;;;;;49.77;25.30;;;;;;;6.83;92.02;94027.06;5050187;28;20252;-85
2021/12/29 06:15:14;;;;;;;53.37;28.10;;;;;;;7.13;92.29;94063.91;5050343;28;20190;-86
2021/12/29 06:17:40;;;;;;;51.13;27.20;;;;;;;6.88;92.13;94029.84;5053815;28;20599;-86
2021/12/29 06:20:08;;;;;;;56.83;30.20;;;;;;;7.18;91.95;94074.56;5066060;28;20193;-86
2021/12/29 06:22:35;;;;;;;54.33;29.67;;;;;;;7.25;91.75;94077.16;5060218;28;20205;-86
2021/12/29 06:25:00;;;;;;;45.80;25.80;;;;;;;7.10;91.42;94069.56;5067888;28;20182;-85
2021/12/29 06:27:26;;;;;;;53.60;31.50;;;;;;;7.22;91.51;94085.41;5050313;28;20228;-85
2021/12/29 06:29:52;;;;;;;64.43;34.93;;;;;;;7.25;91.61;94092.88;5051573;28;20163;-85
2021/12/29 06:32:18;;;;;;;59.10;33.47;;;;;;;7.25;91.26;94092.88;5050129;28;20294;-85
2021/12/29 06:34:43;;;;;;;54.30;29.57;;;;;;;7.16;91.47;94079.22;5050281;28;20205;-85
2021/12/29 06:37:12;;;;;;;47.53;25.87;;;;;;;7.10;91.27;94062.53;5050857;28;20198;-86
2021/12/29 06:39:39;;;;;;;59.20;31.17;;;;;;;6.99;91.30;94044.06;5050274;28;20186;-86
2021/12/29 06:42:05;;;;;;;58.93;32.47;;;;;;;7.41;91.19;94097.59;5050198;28;20171;-85
2021/12/29 06:44:31;;;;;;;62.13;33.93;;;;;;;7.41;90.79;94093.19;5058462;28;20190;-85
2021/12/29 06:46:56;;;;;;;63.67;35.67;;;;;;;7.28;91.21;94074.09;5062672;28;20190;-85
2021/12/29 06:49:22;;;;;;;62.13;35.17;;;;;;;7.36;91.44;94092.97;5070157;28;20167;-85
2021/12/29 06:51:49;;;;;;;53.70;30.83;;;;;;;7.50;91.41;94106.81;5071678;28;20198;-86
2021/12/29 06:54:15;;;;;;;60.77;33.27;;;;;;;7.26;91.24;94056.03;5062185;28;20179;-85
2021/12/29 06:56:40;;;;;;;68.83;37.67;;;;;;;6.92;91.56;94004.06;5070075;28;20269;-85
2021/12/29 06:59:06;;;;;;;67.10;36.47;;;;;;;7.58;91.67;94110.00;5071227;28;20598;-85
2021/12/29 07:01:31;;;;;;;115.97;59.30;;;;;;;7.40;91.09;94086.34;5073905;28;20221;-86
2021/12/29 07:03:57;;;;;;;139.27;69.27;;;;;;;7.47;91.99;94097.56;5074539;28;20159;-84
2021/12/29 07:06:23;;;;;;;161.93;86.37;;;;;;;7.34;91.83;94079.31;5065378;28;20186;-85
2021/12/29 07:08:48;;;;;;;155.97;78.70;;;;;;;7.25;92.10;94062.25;5065758;28;20201;-85
2021/12/29 07:11:13;;;;;;;152.77;76.33;;;;;;;7.28;92.66;94063.63;5055695;28;20237;-85
2021/12/29 07:13:39;;;;;;;195.90;84.40;;;;;;;7.25;92.33;94061.47;5056162;28;20186;-84
2021/12/29 07:16:04;;;;;;;174.20;80.73;;;;;;;7.56;92.40;94095.50;5060374;28;20182;-85
2021/12/29 07:18:30;;;;;;;169.77;71.77;;;;;;;7.69;92.25;94116.38;5064409;28;20178;-85
2021/12/29 07:20:56;;;;;;;155.43;66.77;;;;;;;7.58;91.96;94089.03;5053314;28;20183;-84
2021/12/29 07:23:21;;;;;;;122.47;51.60;;;;;;;7.70;91.87;94102.25;5061643;28;20734;-83
2021/12/29 07:25:46;;;;;;;114.47;47.27;;;;;;;7.82;91.89;94118.91;5059529;28;20174;-84
2021/12/29 07:28:12;;;;;;;89.10;38.40;;;;;;;7.76;91.85;94098.00;5064162;28;20568;-85
2021/12/29 07:30:37;;;;;;;79.93;36.37;;;;;;;7.55;91.75;94075.56;5056823;28;20230;-85
2021/12/29 07:33:03;;;;;;;72.13;32.50;;;;;;;7.83;92.01;94119.72;5059128;28;20246;-85
2021/12/29 07:35:28;;;;;;;65.90;30.07;;;;;;;7.91;91.40;94124.69;5061209;28;20174;-85
2021/12/29 07:37:54;;;;;;;68.63;30.50;;;;;;;7.55;91.47;94071.13;5065125;28;20171;-85
2021/12/29 07:40:19;;;;;;;62.67;33.20;;;;;;;7.47;91.45;94060.09;5046438;28;20182;-85
2021/12/29 07:42:45;;;;;;;65.40;31.77;;;;;;;7.76;92.01;94104.03;5062852;28;20422;-85
2021/12/29 07:45:12;;;;;;;66.80;31.57;;;;;;;7.69;92.03;94087.56;5060495;28;20277;-85
2021/12/29 07:47:45;;;;;;;66.43;33.63;;;;;;;7.85;91.90;94118.50;5065095;28;20175;-85
2021/12/29 07:50:11;;;;;;;66.47;31.87;;;;;;;7.85;91.91;94120.31;5061596;28;20207;-85
2021/12/29 07:52:36;;;;;;;62.33;31.40;;;;;;;7.67;92.32;94088.78;5062486;28;20634;-84
2021/12/29 07:55:02;;;;;;;75.73;33.40;;;;;;;7.69;92.23;94081.53;5062580;28;20178;-85
2021/12/29 07:57:28;;;;;;;58.03;32.13;;;;;;;7.57;92.50;94071.72;5061351;28;20568;-86
2021/12/29 07:59:53;;;;;;;61.37;32.07;;;;;;;7.60;92.90;94074.94;5071557;28;20170;-84
2021/12/29 08:02:19;;;;;;;69.10;34.17;;;;;;;7.81;93.66;94119.09;5061765;28;20182;-84
2021/12/29 08:04:47;;;;;;;69.57;36.87;;;;;;;7.59;93.14;94068.91;5067691;28;20222;-86
2021/12/29 08:07:14;;;;;;;78.80;40.10;;;;;;;7.71;92.99;94103.84;5062042;28;20179;-86
2021/12/29 08:09:48;;;;;;;87.53;42.90;;;;;;;7.51;93.52;94072.56;5058129;28;20660;-87
2021/12/29 08:12:13;;;;;;;86.50;40.53;;;;;;;7.65;93.94;94104.72;5056677;28;21008;-87
2021/12/29 08:14:38;;;;;;;78.87;39.90;;;;;;;7.60;93.81;94095.88;5062118;28;20284;-85
2021/12/29 08:17:05;;;;;;;85.67;39.77;;;;;;;7.77;93.64;94120.56;5061484;28;20265;-88
2021/12/29 08:19:30;;;;;;;95.43;44.27;;;;;;;7.53;94.35;94081.00;5061719;28;20174;-88
2021/12/29 08:21:56;;;;;;;140.87;65.43;;;;;;;7.67;94.27;94092.22;5062488;28;20247;-85
2021/12/29 08:24:24;;;;;;;124.97;58.30;;;;;;;7.60;94.25;94075.75;5064716;28;20585;-87
2021/12/29 08:26:50;;;;;;;117.27;56.93;;;;;;;7.76;94.45;94077.84;5057965;28;20183;-87
2021/12/29 08:29:15;;;;;;;114.03;54.23;;;;;;;7.63;94.18;94048.31;5051954;28;20214;-89
2021/12/29 08:31:40;;;;;;;123.27;62.93;;;;;;;7.87;93.72;94073.75;5060653;28;20195;-90
2021/12/29 08:34:12;;;;;;;107.00;55.50;;;;;;;7.90;93.51;94060.19;5060727;28;20638;-89
2021/12/29 08:36:37;;;;;;;117.77;57.17;;;;;;;7.96;93.82;94081.09;5062299;28;20167;-87
2021/12/29 08:39:04;;;;;;;115.00;54.57;;;;;;;8.18;93.55;94120.06;5062037;28;20640;-86
2021/12/29 08:41:29;;;;;;;102.67;51.60;;;;;;;8.20;92.94;94107.53;5060629;28;20245;-87
2021/12/29 08:43:54;;;;;;;100.90;49.73;;;;;;;8.06;93.28;94075.38;5060458;28;20175;-87
2021/12/29 08:46:22;;;;;;;111.83;52.27;;;;;;;8.33;93.31;94113.50;5061943;28;20177;-87
2021/12/29 08:48:48;;;;;;;94.77;47.60;;;;;;;8.17;92.90;94074.69;5068040;28;20170;-84
2021/12/29 08:51:14;;;;;;;89.90;45.10;;;;;;;8.31;93.09;94106.84;5062472;28;20209;-85
2021/12/29 08:53:40;;;;;;;104.47;51.10;;;;;;;8.35;92.84;94110.66;5054876;28;20641;-85
2021/12/29 08:56:05;;;;;;;167.10;73.33;;;;;;;8.37;93.04;94110.47;5059583;28;20186;-84
2021/12/29 08:58:31;;;;;;;202.77;93.73;;;;;;;8.23;92.94;94083.50;5051558;28;20171;-83
2021/12/29 09:00:59;;;;;;;212.33;100.03;;;;;;;8.00;92.84;94055.28;5061447;28;20178;-83
2021/12/29 09:03:25;;;;;;;268.37;127.57;;;;;;;8.41;92.76;94109.00;5059979;28;20666;-88
2021/12/29 09:05:50;;;;;;;161.10;79.87;;;;;;;8.33;93.46;94078.59;5061186;28;20219;-83
2021/12/29 09:08:16;;;;;;;118.50;54.63;;;;;;;8.55;93.49;94105.25;5058361;28;20208;-84
2021/12/29 09:10:42;;;;;;;107.93;48.63;;;;;;;8.42;92.93;94081.75;5063918;28;20206;-86
2021/12/29 09:13:11;;;;;;;87.63;41.80;;;;;;;8.33;93.20;94057.63;5063736;28;20216;-82
2021/12/29 09:15:37;;;;;;;75.33;36.60;;;;;;;8.55;93.26;94092.94;5072684;28;20668;-83
2021/12/29 09:18:04;;;;;;;76.20;34.43;;;;;;;8.37;92.77;94050.94;5064489;28;20265;-82
2021/12/29 09:20:32;;;;;;;64.43;31.80;;;;;;;8.59;91.85;94085.41;5062308;28;20252;-81
2021/12/29 09:23:06;;;;;;;63.33;32.90;;;;;;;8.53;92.13;94075.81;5058856;28;20175;-85
2021/12/29 09:25:32;;;;;;;73.50;34.27;;;;;;;8.42;91.94;94053.72;5068530;28;20166;-80
2021/12/29 09:27:58;;;;;;;63.23;31.20;;;;;;;8.66;92.03;94073.84;5061446;28;20632;-82
2021/12/29 09:30:27;;;;;;;60.20;29.17;;;;;;;8.33;91.79;94010.44;5061036;28;20250;-82
2021/12/29 09:32:53;;;;;;;61.50;32.53;;;;;;;8.42;91.33;94035.34;5059662;28;20194;-83
2021/12/29 09:35:20;;;;;;;70.97;36.83;;;;;;;8.55;91.70;94032.59;5052348;28;20213;-83
2021/12/29 09:37:46;;;;;;;77.63;39.67;;;;;;;8.75;91.49;94055.97;5050797;28;20653;-82
2021/12/29 09:40:13;;;;;;;85.30;42.73;;;;;;;8.64;90.78;94039.16;5061587;28;20174;-83
2021/12/29 09:42:38;;;;;;;91.57;47.43;;;;;;;8.83;91.04;94063.56;5062968;28;20174;-83
2021/12/29 09:45:06;;;;;;;95.47;46.10;;;;;;;8.74;91.18;94046.50;5063143;28;20261;-83
2021/12/29 09:47:33;;;;;;;82.53;38.60;;;;;;;8.86;90.98;94059.69;5052060;28;20177;-83
2021/12/29 09:49:59;;;;;;;88.33;42.03;;;;;;;8.70;90.22;94027.78;5059372;28;20544;-83
2021/12/29 09:52:29;;;;;;;89.80;42.53;;;;;;;8.80;90.19;94043.03;5060600;28;20209;-84
2021/12/29 09:54:55;;;;;;;85.90;42.27;;;;;;;8.63;90.32;94006.09;5061681;28;20167;-83
2021/12/29 09:57:21;;;;;;;77.57;41.77;;;;;;;8.61;91.09;93992.38;5063090;28;20162;-82
2021/12/29 09:59:46;;;;;;;80.53;41.03;;;;;;;8.75;91.24;94007.94;5064627;28;20179;-82
2021/12/29 10:02:12;;;;;;;64.80;33.13;;;;;;;8.96;91.72;94031.91;5060666;28;20178;-83
2021/12/29 10:04:40;;;;;;;57.53;29.17;;;;;;;9.10;91.09;94043.03;5069380;28;20230;-81
2021/12/29 10:07:20;;;;;;;70.77;33.93;;;;;;;9.04;90.92;94028.19;5063488;28;20178;-85
2021/12/29 10:09:46;;;;;;;63.27;31.47;;;;;;;9.14;91.06;94038.97;5061555;28;20648;-83
2021/12/29 10:12:19;;;;;;;70.50;33.07;;;;;;;9.23;91.00;94040.25;5062771;28;20283;-88
2021/12/29 10:14:50;;;;;;;75.90;38.20;;;;;;;9.01;91.48;93990.06;5054542;28;20175;-85
2021/12/29 10:17:16;;;;;;;72.57;37.17;;;;;;;9.22;91.22;94016.84;5050357;28;20163;-83
2021/12/29 10:19:41;;;;;;;71.70;38.80;;;;;;;8.88;91.54;93957.94;5050443;28;20175;-85
2021/12/29 10:22:07;;;;;;;70.23;34.83;;;;;;;9.13;91.32;93990.09;5051694;28;20243;-85
2021/12/29 10:24:32;;;;;;;69.57;37.77;;;;;;;9.10;90.86;93977.41;5051788;28;20205;-85
2021/12/29 10:26:58;;;;;;;65.40;35.20;;;;;;;8.70;90.89;93914.19;5060374;28;20297;-84
2021/12/29 10:29:27;;;;;;;70.90;35.53;;;;;;;9.35;91.27;94027.97;5060406;28;20164;-85
2021/12/29 10:31:58;;;;;;;82.40;36.77;;;;;;;9.45;91.66;94022.97;5057739;28;20903;-84
2021/12/29 10:34:29;;;;;;;69.70;37.20;;;;;;;9.29;91.02;93983.41;5061356;28;20193;-87
2021/12/29 10:36:58;;;;;;;61.90;31.93;;;;;;;9.53;90.96;94021.84;5061435;28;20170;-84
2021/12/29 10:39:40;;;;;;;63.83;31.93;;;;;;;9.58;90.84;94016.72;5064228;28;20178;-87
2021/12/29 10:42:14;;;;;;;59.37;31.60;;;;;;;9.39;90.61;93971.34;5055310;28;20186;-85
2021/12/29 10:44:49;;;;;;;73.73;33.00;;;;;;;9.70;90.35;94006.22;5062841;28;20240;-86
2021/12/29 10:47:19;;;;;;;66.57;31.80;;;;;;;9.31;89.86;93941.97;5064087;28;20170;-84
2021/12/29 10:50:03;;;;;;;61.23;32.37;;;;;;;9.81;89.46;94010.72;5054516;28;20232;-84
2021/12/29 10:52:38;;;;;;;65.83;33.60;;;;;;;9.84;89.76;94005.81;5061438;28;20205;-85
2021/12/29 10:55:38;;;;;;;64.90;33.90;;;;;;;9.86;89.19;94010.03;5054045;28;20174;-85
2021/12/29 10:58:11;;;;;;;75.80;38.27;;;;;;;9.82;89.15;94007.06;5022977;28;20198;-86
2021/12/29 11:00:39;;;;;;;78.73;39.13;;;;;;;9.44;88.90;93950.44;5074926;28;20248;-86
2021/12/29 11:03:09;;;;;;;73.90;35.70;;;;;;;9.28;89.39;93921.41;5066706;28;20742;-85
2021/12/29 11:05:38;;;;;;;70.77;36.60;;;;;;;9.66;89.39;93966.47;5062584;28;20231;-82
2021/12/29 11:08:06;;;;;;;70.37;33.13;;;;;;;9.52;89.22;93933.53;5069253;28;20179;-84
2021/12/29 11:10:32;;;;;;;70.03;33.90;;;;;;;9.54;89.12;93936.75;5063354;28;20706;-84
2021/12/29 11:12:58;;;;;;;72.10;33.40;;;;;;;9.49;89.28;93925.34;5061697;28;20206;-83
2021/12/29 11:15:36;;;;;;;68.63;33.83;;;;;;;9.68;89.19;93961.00;5068377;28;20181;-85
2021/12/29 11:18:06;;;;;;;68.97;33.73;;;;;;;9.67;89.14;93954.16;5069216;28;20177;-84
2021/12/29 11:20:33;;;;;;;69.00;33.53;;;;;;;9.77;88.65;93972.78;5066534;28;20184;-85
2021/12/29 11:23:05;;;;;;;75.07;32.53;;;;;;;9.90;88.93;93984.88;5061657;28;20167;-85
2021/12/29 11:25:32;;;;;;;65.13;31.60;;;;;;;9.89;89.35;93970.94;5069267;28;20566;-85
2021/12/29 11:27:57;;;;;;;61.60;31.30;;;;;;;9.95;89.43;93982.38;5067691;28;20178;-85
2021/12/29 11:30:23;;;;;;;66.50;33.93;;;;;;;9.97;89.38;93972.44;5061950;28;20540;-84